sensor_id;sensor_type;location;lat;lon;timestamp;P1;durP1;ratioP1;P2;durP2;ratioP2
31730;SDS011;18310;55.586;12.286;2023-11-18T00:00:20;5.15;;;2.58;;
31730;SDS011;18310;55.586;12.286;2023-11-18T00:03:24;6.45;;;3.22;;
31730;SDS011;18310;55.586;12.286;2023-11-18T00:06:30;7.15;;;2.55;;
31730;SDS011;18310;55.586;12.286;2023-11-18T00:09:34;5.07;;;2.47;;
31730;SDS011;18310;55.586;12.286;2023-11-18T00:12:40;4.18;;;2.15;;
31730;SDS011;18310;55.586;12.286;2023-11-18T00:15:44;4.88;;;2.30;;
31730;SDS011;18310;55.586;12.286;2023-11-18T00:18:50;6.00;;;2.72;;
31730;SDS011;18310;55.586;12.286;2023-11-18T00:21:57;7.88;;;3.13;;
31730;SDS011;18310;55.586;12.286;2023-11-18T00:25:06;7.05;;;3.47;;
31730;SDS011;18310;55.586;12.286;2023-11-18T00:28:21;5.97;;;3.03;;
31730;SDS011;18310;55.586;12.286;2023-11-18T00:31:25;8.43;;;3.13;;
31730;SDS011;18310;55.586;12.286;2023-11-18T00:34:32;6.47;;;2.75;;
31730;SDS011;18310;55.586;12.286;2023-11-18T00:37:38;6.30;;;3.00;;
31730;SDS011;18310;55.586;12.286;2023-11-18T00:40:42;6.70;;;2.90;;
31730;SDS011;18310;55.586;12.286;2023-11-18T00:43:48;6.22;;;3.03;;
31730;SDS011;18310;55.586;12.286;2023-11-18T00:46:51;8.38;;;3.08;;
31730;SDS011;18310;55.586;12.286;2023-11-18T00:49:57;5.30;;;3.08;;
31730;SDS011;18310;55.586;12.286;2023-11-18T00:53:08;6.40;;;3.10;;
31730;SDS011;18310;55.586;12.286;2023-11-18T00:56:13;7.00;;;3.28;;
31730;SDS011;18310;55.586;12.286;2023-11-18T00:59:24;7.40;;;3.35;;
31730;SDS011;18310;55.586;12.286;2023-11-18T01:02:29;6.53;;;2.92;;
31730;SDS011;18310;55.586;12.286;2023-11-18T01:07:53;5.60;;;2.63;;
31730;SDS011;18310;55.586;12.286;2023-11-18T01:10:58;5.00;;;2.13;;
31730;SDS011;18310;55.586;12.286;2023-11-18T01:14:02;8.15;;;2.88;;
31730;SDS011;18310;55.586;12.286;2023-11-18T01:17:07;5.50;;;2.13;;
31730;SDS011;18310;55.586;12.286;2023-11-18T01:20:13;6.32;;;2.65;;
31730;SDS011;18310;55.586;12.286;2023-11-18T01:24:06;5.82;;;3.05;;
31730;SDS011;18310;55.586;12.286;2023-11-18T01:27:11;5.85;;;2.90;;
31730;SDS011;18310;55.586;12.286;2023-11-18T01:30:20;7.38;;;3.25;;
31730;SDS011;18310;55.586;12.286;2023-11-18T01:33:27;6.35;;;3.08;;
31730;SDS011;18310;55.586;12.286;2023-11-18T01:36:35;6.22;;;3.00;;
31730;SDS011;18310;55.586;12.286;2023-11-18T01:39:42;6.55;;;2.72;;
31730;SDS011;18310;55.586;12.286;2023-11-18T01:42:52;7.90;;;3.35;;
31730;SDS011;18310;55.586;12.286;2023-11-18T01:45:58;5.78;;;2.90;;
31730;SDS011;18310;55.586;12.286;2023-11-18T01:49:04;5.38;;;2.50;;
31730;SDS011;18310;55.586;12.286;2023-11-18T01:52:34;5.45;;;2.92;;
31730;SDS011;18310;55.586;12.286;2023-11-18T01:55:45;12.57;;;3.47;;
31730;SDS011;18310;55.586;12.286;2023-11-18T01:58:52;7.78;;;3.13;;
31730;SDS011;18310;55.586;12.286;2023-11-18T02:01:56;6.80;;;2.45;;
31730;SDS011;18310;55.586;12.286;2023-11-18T02:05:02;6.30;;;2.60;;
31730;SDS011;18310;55.586;12.286;2023-11-18T02:08:11;6.57;;;2.65;;
31730;SDS011;18310;55.586;12.286;2023-11-18T02:11:17;5.00;;;2.63;;
31730;SDS011;18310;55.586;12.286;2023-11-18T02:14:29;5.93;;;2.90;;
31730;SDS011;18310;55.586;12.286;2023-11-18T02:17:39;4.38;;;2.40;;
31730;SDS011;18310;55.586;12.286;2023-11-18T02:20:47;5.45;;;2.53;;
31730;SDS011;18310;55.586;12.286;2023-11-18T02:23:58;4.85;;;2.35;;
31730;SDS011;18310;55.586;12.286;2023-11-18T02:27:06;6.13;;;2.55;;
31730;SDS011;18310;55.586;12.286;2023-11-18T02:30:16;5.35;;;2.50;;
31730;SDS011;18310;55.586;12.286;2023-11-18T02:33:27;6.78;;;2.40;;
31730;SDS011;18310;55.586;12.286;2023-11-18T02:36:44;4.75;;;2.10;;
31730;SDS011;18310;55.586;12.286;2023-11-18T02:39:52;6.35;;;2.25;;
31730;SDS011;18310;55.586;12.286;2023-11-18T02:43:07;5.63;;;2.53;;
31730;SDS011;18310;55.586;12.286;2023-11-18T02:46:19;5.22;;;2.33;;
31730;SDS011;18310;55.586;12.286;2023-11-18T02:49:26;4.55;;;2.38;;
31730;SDS011;18310;55.586;12.286;2023-11-18T02:52:32;5.90;;;2.65;;
31730;SDS011;18310;55.586;12.286;2023-11-18T02:55:38;5.53;;;2.70;;
31730;SDS011;18310;55.586;12.286;2023-11-18T02:58:52;5.07;;;2.20;;
31730;SDS011;18310;55.586;12.286;2023-11-18T03:02:10;7.95;;;2.67;;
31730;SDS011;18310;55.586;12.286;2023-11-18T03:05:18;5.07;;;2.25;;
31730;SDS011;18310;55.586;12.286;2023-11-18T03:08:26;4.43;;;2.22;;
31730;SDS011;18310;55.586;12.286;2023-11-18T03:11:32;6.95;;;2.70;;
31730;SDS011;18310;55.586;12.286;2023-11-18T03:14:39;5.10;;;2.60;;
31730;SDS011;18310;55.586;12.286;2023-11-18T03:17:44;6.03;;;2.80;;
31730;SDS011;18310;55.586;12.286;2023-11-18T03:20:51;5.32;;;2.60;;
31730;SDS011;18310;55.586;12.286;2023-11-18T03:23:57;5.25;;;2.53;;
31730;SDS011;18310;55.586;12.286;2023-11-18T03:27:03;8.63;;;2.50;;
31730;SDS011;18310;55.586;12.286;2023-11-18T03:30:12;6.88;;;2.70;;
31730;SDS011;18310;55.586;12.286;2023-11-18T03:33:19;5.38;;;2.95;;
31730;SDS011;18310;55.586;12.286;2023-11-18T03:36:23;5.28;;;2.80;;
31730;SDS011;18310;55.586;12.286;2023-11-18T03:39:29;5.72;;;2.45;;
31730;SDS011;18310;55.586;12.286;2023-11-18T03:42:34;5.43;;;2.33;;
31730;SDS011;18310;55.586;12.286;2023-11-18T03:45:40;6.70;;;2.60;;
31730;SDS011;18310;55.586;12.286;2023-11-18T03:48:45;4.40;;;2.28;;
31730;SDS011;18310;55.586;12.286;2023-11-18T03:51:54;7.13;;;2.63;;
31730;SDS011;18310;55.586;12.286;2023-11-18T03:55:00;5.18;;;2.50;;
31730;SDS011;18310;55.586;12.286;2023-11-18T03:58:19;4.63;;;2.50;;
31730;SDS011;18310;55.586;12.286;2023-11-18T04:01:28;6.80;;;2.40;;
31730;SDS011;18310;55.586;12.286;2023-11-18T04:04:38;5.70;;;2.45;;
31730;SDS011;18310;55.586;12.286;2023-11-18T04:08:01;4.60;;;2.38;;
31730;SDS011;18310;55.586;12.286;2023-11-18T04:11:09;5.35;;;2.38;;
31730;SDS011;18310;55.586;12.286;2023-11-18T04:14:18;3.85;;;1.88;;
31730;SDS011;18310;55.586;12.286;2023-11-18T04:17:29;5.13;;;2.33;;
31730;SDS011;18310;55.586;12.286;2023-11-18T04:20:35;5.15;;;2.00;;
31730;SDS011;18310;55.586;12.286;2023-11-18T04:23:40;4.97;;;2.20;;
31730;SDS011;18310;55.586;12.286;2023-11-18T04:26:46;4.40;;;1.98;;
31730;SDS011;18310;55.586;12.286;2023-11-18T04:29:51;4.35;;;2.28;;
31730;SDS011;18310;55.586;12.286;2023-11-18T04:32:57;5.68;;;2.15;;
31730;SDS011;18310;55.586;12.286;2023-11-18T04:36:03;6.93;;;2.35;;
31730;SDS011;18310;55.586;12.286;2023-11-18T04:39:08;5.32;;;2.45;;
31730;SDS011;18310;55.586;12.286;2023-11-18T04:42:14;4.70;;;2.20;;
31730;SDS011;18310;55.586;12.286;2023-11-18T04:45:20;4.55;;;2.25;;
31730;SDS011;18310;55.586;12.286;2023-11-18T04:48:31;6.88;;;2.38;;
31730;SDS011;18310;55.586;12.286;2023-11-18T04:51:44;4.63;;;2.30;;
31730;SDS011;18310;55.586;12.286;2023-11-18T04:54:49;5.70;;;2.67;;
31730;SDS011;18310;55.586;12.286;2023-11-18T04:57:53;8.43;;;2.95;;
31730;SDS011;18310;55.586;12.286;2023-11-18T05:00:57;6.18;;;2.65;;
31730;SDS011;18310;55.586;12.286;2023-11-18T05:04:03;5.75;;;2.58;;
31730;SDS011;18310;55.586;12.286;2023-11-18T05:07:13;6.15;;;2.83;;
31730;SDS011;18310;55.586;12.286;2023-11-18T05:10:23;5.95;;;2.80;;
31730;SDS011;18310;55.586;12.286;2023-11-18T05:13:27;5.85;;;2.53;;
31730;SDS011;18310;55.586;12.286;2023-11-18T05:16:32;5.57;;;2.75;;
31730;SDS011;18310;55.586;12.286;2023-11-18T05:19:39;6.38;;;2.47;;
31730;SDS011;18310;55.586;12.286;2023-11-18T05:22:44;5.78;;;3.00;;
31730;SDS011;18310;55.586;12.286;2023-11-18T05:25:52;7.43;;;3.00;;
31730;SDS011;18310;55.586;12.286;2023-11-18T05:29:00;7.72;;;3.30;;
31730;SDS011;18310;55.586;12.286;2023-11-18T05:32:06;5.18;;;2.65;;
31730;SDS011;18310;55.586;12.286;2023-11-18T05:35:12;6.35;;;2.55;;
31730;SDS011;18310;55.586;12.286;2023-11-18T05:38:16;5.63;;;2.67;;
31730;SDS011;18310;55.586;12.286;2023-11-18T05:41:24;5.65;;;2.95;;
31730;SDS011;18310;55.586;12.286;2023-11-18T05:44:33;7.32;;;2.85;;
31730;SDS011;18310;55.586;12.286;2023-11-18T05:47:40;5.93;;;2.92;;
31730;SDS011;18310;55.586;12.286;2023-11-18T05:50:46;4.85;;;2.47;;
31730;SDS011;18310;55.586;12.286;2023-11-18T05:53:52;5.63;;;2.83;;
31730;SDS011;18310;55.586;12.286;2023-11-18T05:56:57;7.47;;;3.10;;
31730;SDS011;18310;55.586;12.286;2023-11-18T06:00:03;6.28;;;3.33;;
31730;SDS011;18310;55.586;12.286;2023-11-18T06:03:12;6.32;;;3.10;;
31730;SDS011;18310;55.586;12.286;2023-11-18T06:06:25;5.03;;;2.20;;
31730;SDS011;18310;55.586;12.286;2023-11-18T06:09:35;6.05;;;3.03;;
31730;SDS011;18310;55.586;12.286;2023-11-18T06:12:40;5.50;;;2.70;;
31730;SDS011;18310;55.586;12.286;2023-11-18T06:15:48;5.80;;;3.10;;
31730;SDS011;18310;55.586;12.286;2023-11-18T06:18:54;4.72;;;2.58;;
31730;SDS011;18310;55.586;12.286;2023-11-18T06:22:02;7.15;;;3.38;;
31730;SDS011;18310;55.586;12.286;2023-11-18T06:25:08;6.90;;;3.28;;
31730;SDS011;18310;55.586;12.286;2023-11-18T06:28:15;6.32;;;2.70;;
31730;SDS011;18310;55.586;12.286;2023-11-18T06:31:20;6.68;;;3.10;;
31730;SDS011;18310;55.586;12.286;2023-11-18T06:34:26;6.10;;;3.40;;
31730;SDS011;18310;55.586;12.286;2023-11-18T06:40:55;6.47;;;3.65;;
31730;SDS011;18310;55.586;12.286;2023-11-18T06:44:00;9.00;;;3.78;;
31730;SDS011;18310;55.586;12.286;2023-11-18T06:47:12;10.07;;;3.95;;
31730;SDS011;18310;55.586;12.286;2023-11-18T06:50:17;8.52;;;3.83;;
31730;SDS011;18310;55.586;12.286;2023-11-18T06:53:28;8.40;;;4.10;;
31730;SDS011;18310;55.586;12.286;2023-11-18T06:56:36;9.45;;;3.97;;
31730;SDS011;18310;55.586;12.286;2023-11-18T06:59:42;7.80;;;3.42;;
31730;SDS011;18310;55.586;12.286;2023-11-18T07:02:54;7.57;;;3.53;;
31730;SDS011;18310;55.586;12.286;2023-11-18T07:06:00;8.50;;;3.97;;
31730;SDS011;18310;55.586;12.286;2023-11-18T07:09:05;5.90;;;3.15;;
31730;SDS011;18310;55.586;12.286;2023-11-18T07:12:17;7.00;;;3.13;;
31730;SDS011;18310;55.586;12.286;2023-11-18T07:15:22;12.75;;;5.47;;
31730;SDS011;18310;55.586;12.286;2023-11-18T07:18:27;11.73;;;6.20;;
31730;SDS011;18310;55.586;12.286;2023-11-18T07:21:36;8.45;;;4.50;;
31730;SDS011;18310;55.586;12.286;2023-11-18T07:24:41;9.57;;;4.80;;
31730;SDS011;18310;55.586;12.286;2023-11-18T07:27:53;8.73;;;4.65;;
31730;SDS011;18310;55.586;12.286;2023-11-18T07:30:58;7.57;;;4.22;;
31730;SDS011;18310;55.586;12.286;2023-11-18T07:37:08;7.38;;;4.07;;
31730;SDS011;18310;55.586;12.286;2023-11-18T07:40:13;8.07;;;4.35;;
31730;SDS011;18310;55.586;12.286;2023-11-18T07:43:26;8.25;;;3.85;;
31730;SDS011;18310;55.586;12.286;2023-11-18T07:46:31;7.85;;;3.95;;
31730;SDS011;18310;55.586;12.286;2023-11-18T07:49:35;8.23;;;4.07;;
31730;SDS011;18310;55.586;12.286;2023-11-18T07:52:40;8.85;;;3.65;;
31730;SDS011;18310;55.586;12.286;2023-11-18T07:55:46;8.82;;;3.45;;
31730;SDS011;18310;55.586;12.286;2023-11-18T07:58:55;5.75;;;3.28;;
31730;SDS011;18310;55.586;12.286;2023-11-18T08:01:59;7.65;;;3.20;;
31730;SDS011;18310;55.586;12.286;2023-11-18T08:05:08;6.00;;;3.00;;
31730;SDS011;18310;55.586;12.286;2023-11-18T08:08:16;6.30;;;3.42;;
31730;SDS011;18310;55.586;12.286;2023-11-18T08:11:21;6.38;;;3.42;;
31730;SDS011;18310;55.586;12.286;2023-11-18T08:14:30;9.57;;;3.40;;
31730;SDS011;18310;55.586;12.286;2023-11-18T08:19:23;6.82;;;2.85;;
31730;SDS011;18310;55.586;12.286;2023-11-18T08:22:28;7.90;;;3.70;;
31730;SDS011;18310;55.586;12.286;2023-11-18T08:25:35;6.55;;;3.10;;
31730;SDS011;18310;55.586;12.286;2023-11-18T08:28:39;5.32;;;3.00;;
31730;SDS011;18310;55.586;12.286;2023-11-18T08:31:44;8.88;;;3.97;;
31730;SDS011;18310;55.586;12.286;2023-11-18T08:34:51;8.00;;;3.25;;
31730;SDS011;18310;55.586;12.286;2023-11-18T08:37:59;6.75;;;3.17;;
31730;SDS011;18310;55.586;12.286;2023-11-18T08:41:04;8.30;;;3.55;;
31730;SDS011;18310;55.586;12.286;2023-11-18T08:44:11;7.03;;;3.40;;
31730;SDS011;18310;55.586;12.286;2023-11-18T08:47:25;8.85;;;4.07;;
31730;SDS011;18310;55.586;12.286;2023-11-18T08:50:31;7.70;;;3.42;;
31730;SDS011;18310;55.586;12.286;2023-11-18T08:53:36;6.35;;;3.42;;
31730;SDS011;18310;55.586;12.286;2023-11-18T08:56:44;5.57;;;3.00;;
31730;SDS011;18310;55.586;12.286;2023-11-18T08:59:53;6.18;;;3.28;;
31730;SDS011;18310;55.586;12.286;2023-11-18T09:03:01;6.40;;;3.47;;
31730;SDS011;18310;55.586;12.286;2023-11-18T09:06:12;7.43;;;3.70;;
31730;SDS011;18310;55.586;12.286;2023-11-18T09:09:29;6.47;;;3.50;;
31730;SDS011;18310;55.586;12.286;2023-11-18T09:12:36;7.75;;;3.78;;
31730;SDS011;18310;55.586;12.286;2023-11-18T09:15:45;7.30;;;3.25;;
31730;SDS011;18310;55.586;12.286;2023-11-18T09:18:50;8.23;;;3.42;;
31730;SDS011;18310;55.586;12.286;2023-11-18T09:21:57;5.30;;;2.80;;
31730;SDS011;18310;55.586;12.286;2023-11-18T09:25:01;5.85;;;3.20;;
31730;SDS011;18310;55.586;12.286;2023-11-18T09:28:12;7.28;;;3.38;;
31730;SDS011;18310;55.586;12.286;2023-11-18T09:31:17;6.03;;;3.47;;
31730;SDS011;18310;55.586;12.286;2023-11-18T09:34:24;6.07;;;3.40;;
31730;SDS011;18310;55.586;12.286;2023-11-18T09:37:37;5.05;;;2.95;;
31730;SDS011;18310;55.586;12.286;2023-11-18T09:40:42;5.72;;;3.30;;
31730;SDS011;18310;55.586;12.286;2023-11-18T09:43:51;7.97;;;3.63;;
31730;SDS011;18310;55.586;12.286;2023-11-18T09:47:00;8.90;;;4.10;;
31730;SDS011;18310;55.586;12.286;2023-11-18T09:50:12;6.40;;;3.60;;
31730;SDS011;18310;55.586;12.286;2023-11-18T09:53:25;8.98;;;3.28;;
31730;SDS011;18310;55.586;12.286;2023-11-18T09:56:37;6.28;;;2.72;;
31730;SDS011;18310;55.586;12.286;2023-11-18T10:00:00;2.90;;;1.23;;
31730;SDS011;18310;55.586;12.286;2023-11-18T10:03:22;4.78;;;2.95;;
31730;SDS011;18310;55.586;12.286;2023-11-18T10:06:27;5.03;;;1.73;;
31730;SDS011;18310;55.586;12.286;2023-11-18T10:09:40;2.38;;;1.13;;
31730;SDS011;18310;55.586;12.286;2023-11-18T10:12:52;2.33;;;0.90;;
31730;SDS011;18310;55.586;12.286;2023-11-18T10:16:02;1.65;;;0.77;;
31730;SDS011;18310;55.586;12.286;2023-11-18T10:19:09;2.67;;;0.80;;
31730;SDS011;18310;55.586;12.286;2023-11-18T10:22:18;1.30;;;0.43;;
31730;SDS011;18310;55.586;12.286;2023-11-18T10:25:28;0.98;;;0.40;;
31730;SDS011;18310;55.586;12.286;2023-11-18T10:28:33;1.13;;;0.43;;
31730;SDS011;18310;55.586;12.286;2023-11-18T10:31:40;4.22;;;0.82;;
31730;SDS011;18310;55.586;12.286;2023-11-18T10:34:47;2.47;;;0.70;;
31730;SDS011;18310;55.586;12.286;2023-11-18T10:37:54;2.10;;;0.80;;
31730;SDS011;18310;55.586;12.286;2023-11-18T10:41:00;1.55;;;0.60;;
31730;SDS011;18310;55.586;12.286;2023-11-18T10:44:28;2.70;;;0.80;;
31730;SDS011;18310;55.586;12.286;2023-11-18T10:47:34;3.00;;;0.70;;
31730;SDS011;18310;55.586;12.286;2023-11-18T10:50:42;1.67;;;0.75;;
31730;SDS011;18310;55.586;12.286;2023-11-18T10:53:54;2.80;;;0.82;;
31730;SDS011;18310;55.586;12.286;2023-11-18T10:57:02;3.40;;;0.90;;
31730;SDS011;18310;55.586;12.286;2023-11-18T11:00:16;2.33;;;0.82;;
31730;SDS011;18310;55.586;12.286;2023-11-18T11:03:30;1.98;;;0.82;;
31730;SDS011;18310;55.586;12.286;2023-11-18T11:06:40;1.88;;;0.77;;
31730;SDS011;18310;55.586;12.286;2023-11-18T11:09:47;2.03;;;0.80;;
31730;SDS011;18310;55.586;12.286;2023-11-18T11:13:00;1.90;;;0.80;;
31730;SDS011;18310;55.586;12.286;2023-11-18T11:16:07;1.58;;;0.60;;
31730;SDS011;18310;55.586;12.286;2023-11-18T11:19:24;1.75;;;0.65;;
31730;SDS011;18310;55.586;12.286;2023-11-18T11:22:36;1.63;;;0.70;;
31730;SDS011;18310;55.586;12.286;2023-11-18T11:25:49;2.58;;;1.00;;
31730;SDS011;18310;55.586;12.286;2023-11-18T11:29:23;2.15;;;0.80;;
31730;SDS011;18310;55.586;12.286;2023-11-18T11:32:32;1.90;;;0.68;;
31730;SDS011;18310;55.586;12.286;2023-11-18T11:35:46;1.38;;;0.52;;
31730;SDS011;18310;55.586;12.286;2023-11-18T11:38:58;1.52;;;0.60;;
31730;SDS011;18310;55.586;12.286;2023-11-18T11:42:03;3.35;;;0.60;;
31730;SDS011;18310;55.586;12.286;2023-11-18T11:45:51;2.08;;;0.77;;
31730;SDS011;18310;55.586;12.286;2023-11-18T11:48:59;3.55;;;0.77;;
31730;SDS011;18310;55.586;12.286;2023-11-18T11:52:14;2.15;;;0.88;;
31730;SDS011;18310;55.586;12.286;2023-11-18T11:55:29;2.10;;;0.68;;
31730;SDS011;18310;55.586;12.286;2023-11-18T11:58:40;2.22;;;0.75;;
31730;SDS011;18310;55.586;12.286;2023-11-18T12:02:12;3.38;;;0.77;;
31730;SDS011;18310;55.586;12.286;2023-11-18T12:05:19;1.98;;;0.70;;
31730;SDS011;18310;55.586;12.286;2023-11-18T12:08:29;3.78;;;0.98;;
31730;SDS011;18310;55.586;12.286;2023-11-18T12:11:34;1.75;;;0.70;;
31730;SDS011;18310;55.586;12.286;2023-11-18T12:14:50;2.05;;;0.90;;
31730;SDS011;18310;55.586;12.286;2023-11-18T12:18:12;2.95;;;0.85;;
31730;SDS011;18310;55.586;12.286;2023-11-18T12:28:39;1.88;;;0.85;;
31730;SDS011;18310;55.586;12.286;2023-11-18T12:31:49;1.90;;;0.70;;
31730;SDS011;18310;55.586;12.286;2023-11-18T12:34:55;1.65;;;0.50;;
31730;SDS011;18310;55.586;12.286;2023-11-18T12:38:10;1.75;;;0.50;;
31730;SDS011;18310;55.586;12.286;2023-11-18T12:41:54;1.95;;;0.85;;
31730;SDS011;18310;55.586;12.286;2023-11-18T12:45:20;2.35;;;0.82;;
31730;SDS011;18310;55.586;12.286;2023-11-18T12:49:08;2.67;;;1.00;;
31730;SDS011;18310;55.586;12.286;2023-11-18T12:52:20;1.73;;;0.70;;
31730;SDS011;18310;55.586;12.286;2023-11-18T12:55:43;2.40;;;0.55;;
31730;SDS011;18310;55.586;12.286;2023-11-18T12:58:47;1.75;;;0.65;;
31730;SDS011;18310;55.586;12.286;2023-11-18T13:01:55;2.00;;;0.63;;
31730;SDS011;18310;55.586;12.286;2023-11-18T13:05:04;1.75;;;0.70;;
31730;SDS011;18310;55.586;12.286;2023-11-18T13:08:12;1.58;;;0.57;;
31730;SDS011;18310;55.586;12.286;2023-11-18T13:11:22;1.83;;;0.55;;
31730;SDS011;18310;55.586;12.286;2023-11-18T13:14:30;3.60;;;0.63;;
31730;SDS011;18310;55.586;12.286;2023-11-18T13:17:56;1.33;;;0.60;;
31730;SDS011;18310;55.586;12.286;2023-11-18T13:21:01;1.42;;;0.50;;
31730;SDS011;18310;55.586;12.286;2023-11-18T13:24:12;0.82;;;0.38;;
31730;SDS011;18310;55.586;12.286;2023-11-18T13:27:19;1.70;;;0.47;;
31730;SDS011;18310;55.586;12.286;2023-11-18T13:30:27;2.00;;;0.60;;
31730;SDS011;18310;55.586;12.286;2023-11-18T13:33:31;1.60;;;0.50;;
31730;SDS011;18310;55.586;12.286;2023-11-18T13:36:35;1.88;;;0.63;;
31730;SDS011;18310;55.586;12.286;2023-11-18T13:39:41;2.28;;;0.47;;
31730;SDS011;18310;55.586;12.286;2023-11-18T13:43:03;1.40;;;0.47;;
31730;SDS011;18310;55.586;12.286;2023-11-18T13:46:11;3.15;;;0.60;;
31730;SDS011;18310;55.586;12.286;2023-11-18T13:49:36;1.00;;;0.40;;
31730;SDS011;18310;55.586;12.286;2023-11-18T13:52:49;2.05;;;0.70;;
31730;SDS011;18310;55.586;12.286;2023-11-18T13:55:54;1.83;;;0.60;;
31730;SDS011;18310;55.586;12.286;2023-11-18T13:59:02;1.60;;;0.68;;
31730;SDS011;18310;55.586;12.286;2023-11-18T14:02:13;1.73;;;0.60;;
31730;SDS011;18310;55.586;12.286;2023-11-18T14:05:21;1.65;;;0.50;;
31730;SDS011;18310;55.586;12.286;2023-11-18T14:08:29;1.45;;;0.65;;
31730;SDS011;18310;55.586;12.286;2023-11-18T14:11:34;1.65;;;0.60;;
31730;SDS011;18310;55.586;12.286;2023-11-18T14:14:40;3.78;;;0.93;;
31730;SDS011;18310;55.586;12.286;2023-11-18T14:17:52;1.70;;;0.82;;
31730;SDS011;18310;55.586;12.286;2023-11-18T14:21:03;1.65;;;0.70;;
31730;SDS011;18310;55.586;12.286;2023-11-18T14:27:31;3.60;;;0.73;;
31730;SDS011;18310;55.586;12.286;2023-11-18T14:30:49;1.40;;;0.60;;
31730;SDS011;18310;55.586;12.286;2023-11-18T14:33:58;2.42;;;0.63;;
31730;SDS011;18310;55.586;12.286;2023-11-18T14:37:15;1.83;;;0.52;;
31730;SDS011;18310;55.586;12.286;2023-11-18T14:40:26;1.98;;;0.68;;
31730;SDS011;18310;55.586;12.286;2023-11-18T14:43:31;1.38;;;0.65;;
31730;SDS011;18310;55.586;12.286;2023-11-18T14:46:43;2.83;;;0.88;;
31730;SDS011;18310;55.586;12.286;2023-11-18T14:49:55;1.15;;;0.60;;
31730;SDS011;18310;55.586;12.286;2023-11-18T14:53:03;2.63;;;0.90;;
31730;SDS011;18310;55.586;12.286;2023-11-18T14:56:09;2.38;;;0.88;;
31730;SDS011;18310;55.586;12.286;2023-11-18T14:59:13;1.70;;;0.60;;
31730;SDS011;18310;55.586;12.286;2023-11-18T15:02:19;1.33;;;0.45;;
31730;SDS011;18310;55.586;12.286;2023-11-18T15:05:24;3.33;;;0.85;;
31730;SDS011;18310;55.586;12.286;2023-11-18T15:08:33;2.65;;;1.02;;
31730;SDS011;18310;55.586;12.286;2023-11-18T15:11:43;2.08;;;0.60;;
31730;SDS011;18310;55.586;12.286;2023-11-18T15:14:58;1.13;;;0.40;;
31730;SDS011;18310;55.586;12.286;2023-11-18T15:18:07;2.10;;;0.80;;
31730;SDS011;18310;55.586;12.286;2023-11-18T15:21:22;2.70;;;0.70;;
31730;SDS011;18310;55.586;12.286;2023-11-18T15:24:37;1.35;;;0.43;;
31730;SDS011;18310;55.586;12.286;2023-11-18T15:27:44;1.73;;;0.60;;
31730;SDS011;18310;55.586;12.286;2023-11-18T15:30:51;1.15;;;0.43;;
31730;SDS011;18310;55.586;12.286;2023-11-18T15:33:58;1.52;;;0.57;;
31730;SDS011;18310;55.586;12.286;2023-11-18T15:37:10;3.22;;;0.88;;
31730;SDS011;18310;55.586;12.286;2023-11-18T15:40:27;2.70;;;0.68;;
31730;SDS011;18310;55.586;12.286;2023-11-18T15:43:41;1.20;;;0.60;;
31730;SDS011;18310;55.586;12.286;2023-11-18T15:46:54;1.35;;;0.50;;
31730;SDS011;18310;55.586;12.286;2023-11-18T15:50:05;2.15;;;0.90;;
31730;SDS011;18310;55.586;12.286;2023-11-18T15:53:21;1.98;;;0.73;;
31730;SDS011;18310;55.586;12.286;2023-11-18T15:56:43;1.90;;;0.70;;
31730;SDS011;18310;55.586;12.286;2023-11-18T15:59:54;1.23;;;0.50;;
31730;SDS011;18310;55.586;12.286;2023-11-18T16:03:09;2.28;;;0.80;;
31730;SDS011;18310;55.586;12.286;2023-11-18T16:06:22;1.67;;;0.68;;
31730;SDS011;18310;55.586;12.286;2023-11-18T16:09:35;1.95;;;0.80;;
31730;SDS011;18310;55.586;12.286;2023-11-18T16:12:54;1.95;;;0.85;;
31730;SDS011;18310;55.586;12.286;2023-11-18T16:16:08;2.80;;;0.75;;
31730;SDS011;18310;55.586;12.286;2023-11-18T16:19:22;1.55;;;0.70;;
31730;SDS011;18310;55.586;12.286;2023-11-18T16:22:37;2.65;;;0.90;;
31730;SDS011;18310;55.586;12.286;2023-11-18T16:25:49;4.28;;;0.90;;
31730;SDS011;18310;55.586;12.286;2023-11-18T16:28:57;2.00;;;0.80;;
31730;SDS011;18310;55.586;12.286;2023-11-18T16:32:08;1.90;;;0.73;;
31730;SDS011;18310;55.586;12.286;2023-11-18T16:35:17;1.27;;;0.60;;
31730;SDS011;18310;55.586;12.286;2023-11-18T16:38:22;3.17;;;0.73;;
31730;SDS011;18310;55.586;12.286;2023-11-18T16:41:27;1.63;;;0.60;;
31730;SDS011;18310;55.586;12.286;2023-11-18T16:44:48;1.88;;;0.60;;
31730;SDS011;18310;55.586;12.286;2023-11-18T16:47:54;1.23;;;0.60;;
31730;SDS011;18310;55.586;12.286;2023-11-18T16:50:59;4.22;;;0.75;;
31730;SDS011;18310;55.586;12.286;2023-11-18T16:54:04;1.90;;;0.63;;
31730;SDS011;18310;55.586;12.286;2023-11-18T16:57:11;1.77;;;0.70;;
31730;SDS011;18310;55.586;12.286;2023-11-18T17:00:19;1.75;;;0.60;;
31730;SDS011;18310;55.586;12.286;2023-11-18T17:03:30;2.35;;;0.55;;
31730;SDS011;18310;55.586;12.286;2023-11-18T17:06:38;5.32;;;0.73;;
31730;SDS011;18310;55.586;12.286;2023-11-18T17:09:44;1.48;;;0.60;;
31730;SDS011;18310;55.586;12.286;2023-11-18T17:12:55;3.78;;;0.70;;
31730;SDS011;18310;55.586;12.286;2023-11-18T17:16:12;1.77;;;0.88;;
31730;SDS011;18310;55.586;12.286;2023-11-18T17:19:24;2.25;;;0.63;;
31730;SDS011;18310;55.586;12.286;2023-11-18T17:22:51;1.40;;;0.70;;
31730;SDS011;18310;55.586;12.286;2023-11-18T17:25:57;1.98;;;0.68;;
31730;SDS011;18310;55.586;12.286;2023-11-18T17:29:07;1.10;;;0.45;;
31730;SDS011;18310;55.586;12.286;2023-11-18T17:32:22;3.00;;;0.80;;
31730;SDS011;18310;55.586;12.286;2023-11-18T17:35:30;2.80;;;0.60;;
31730;SDS011;18310;55.586;12.286;2023-11-18T17:39:54;1.50;;;0.67;;
31730;SDS011;18310;55.586;12.286;2023-11-18T17:43:00;2.45;;;0.63;;
31730;SDS011;18310;55.586;12.286;2023-11-18T17:46:04;1.70;;;0.77;;
31730;SDS011;18310;55.586;12.286;2023-11-18T17:49:14;2.72;;;0.70;;
31730;SDS011;18310;55.586;12.286;2023-11-18T17:52:24;2.40;;;0.90;;
31730;SDS011;18310;55.586;12.286;2023-11-18T17:55:30;2.05;;;0.75;;
31730;SDS011;18310;55.586;12.286;2023-11-18T17:58:34;1.98;;;0.60;;
31730;SDS011;18310;55.586;12.286;2023-11-18T18:01:40;2.55;;;0.63;;
31730;SDS011;18310;55.586;12.286;2023-11-18T18:07:49;1.75;;;0.60;;
31730;SDS011;18310;55.586;12.286;2023-11-18T18:10:55;1.40;;;0.70;;
31730;SDS011;18310;55.586;12.286;2023-11-18T18:14:00;1.77;;;0.68;;
31730;SDS011;18310;55.586;12.286;2023-11-18T18:20:10;1.50;;;0.50;;
31730;SDS011;18310;55.586;12.286;2023-11-18T18:23:16;1.88;;;0.77;;
31730;SDS011;18310;55.586;12.286;2023-11-18T18:26:22;2.72;;;0.75;;
31730;SDS011;18310;55.586;12.286;2023-11-18T18:29:53;2.70;;;0.85;;
31730;SDS011;18310;55.586;12.286;2023-11-18T18:32:59;3.35;;;0.63;;
31730;SDS011;18310;55.586;12.286;2023-11-18T18:36:10;1.90;;;0.70;;
31730;SDS011;18310;55.586;12.286;2023-11-18T18:39:15;1.98;;;0.75;;
31730;SDS011;18310;55.586;12.286;2023-11-18T18:42:25;1.27;;;0.70;;
31730;SDS011;18310;55.586;12.286;2023-11-18T18:45:34;3.28;;;1.10;;
31730;SDS011;18310;55.586;12.286;2023-11-18T18:48:45;2.75;;;0.88;;
31730;SDS011;18310;55.586;12.286;2023-11-18T18:51:56;2.50;;;0.70;;
31730;SDS011;18310;55.586;12.286;2023-11-18T18:55:05;2.33;;;0.70;;
31730;SDS011;18310;55.586;12.286;2023-11-18T18:58:12;2.95;;;0.60;;
31730;SDS011;18310;55.586;12.286;2023-11-18T19:01:30;1.33;;;0.52;;
31730;SDS011;18310;55.586;12.286;2023-11-18T19:04:35;3.55;;;0.93;;
31730;SDS011;18310;55.586;12.286;2023-11-18T19:07:49;3.13;;;0.85;;
31730;SDS011;18310;55.586;12.286;2023-11-18T19:10:58;2.42;;;0.77;;